createdAt,value
2018-03-11T00:00:22.327Z,120.65
2018-03-11T00:02:51.459Z,122.72
2018-03-11T00:05:20.580Z,123.35
2018-03-11T00:07:55.671Z,121.15
2018-03-11T00:10:24.809Z,119.15
2018-03-11T00:12:54.116Z,120.25
2018-03-11T00:15:23.287Z,118.40
2018-03-11T00:17:52.661Z,122.20
2018-03-11T00:20:21.931Z,119.70
2018-03-11T00:22:51.147Z,120.97
2018-03-11T00:25:20.295Z,121.13
2018-03-11T00:27:49.833Z,123.28
2018-03-11T00:30:19.141Z,117.28
2018-03-11T00:32:48.534Z,122.28
2018-03-11T00:35:17.887Z,118.53
2018-03-11T00:37:47.213Z,120.35
2018-03-11T00:40:16.543Z,116.80
2018-03-11T00:42:45.911Z,122.65
2018-03-11T00:45:15.210Z,120.40
2018-03-11T00:47:44.403Z,120.10
2018-03-11T00:50:13.810Z,119.50
2018-03-11T00:52:43.095Z,121.37
2018-03-11T00:55:12.402Z,121.05
2018-03-11T00:57:41.910Z,120.87
2018-03-11T01:00:11.212Z,121.78
2018-03-11T01:02:40.511Z,121.45
2018-03-11T01:05:09.823Z,120.47
2018-03-11T01:07:39.151Z,120.05
2018-03-11T01:10:08.451Z,118.90
2018-03-11T01:12:37.841Z,121.07
2018-03-11T01:15:07.022Z,120.30
2018-03-11T01:17:36.317Z,120.62
2018-03-11T01:20:05.722Z,117.93
2018-03-11T01:22:35.005Z,119.32
2018-03-11T01:25:04.303Z,120.47
2018-03-11T01:27:33.542Z,121.22
2018-03-11T01:30:03.230Z,119.68
2018-03-11T01:32:32.760Z,120.60
2018-03-11T01:35:02.053Z,120.68
2018-03-11T01:37:31.425Z,118.55
2018-03-11T01:40:00.911Z,119.50
2018-03-11T01:42:30.296Z,122.15
2018-03-11T01:44:59.725Z,120.93
2018-03-11T01:47:29.259Z,121.62
2018-03-11T01:49:58.518Z,122.43
2018-03-11T01:52:27.799Z,121.03
2018-03-11T01:54:57.231Z,123.95
2018-03-11T01:57:26.544Z,124.62
2018-03-11T01:59:55.923Z,120.10
2018-03-11T02:02:25.238Z,121.78
2018-03-11T02:04:54.627Z,122.62
2018-03-11T02:07:24.046Z,120.53
2018-03-11T02:09:53.369Z,122.47
2018-03-11T02:12:22.831Z,123.30
2018-03-11T02:14:52.091Z,123.22
2018-03-11T02:17:21.452Z,117.57
2018-03-11T02:19:50.756Z,121.90
2018-03-11T02:22:20.024Z,118.40
2018-03-11T02:24:49.451Z,121.55
2018-03-11T02:27:18.855Z,115.88
2018-03-11T02:29:48.137Z,118.78
2018-03-11T02:32:17.586Z,119.50
2018-03-11T02:34:46.934Z,119.82
2018-03-11T02:37:16.185Z,117.85
2018-03-11T02:39:45.530Z,119.35
2018-03-11T02:42:14.936Z,117.95
2018-03-11T02:44:44.282Z,121.78
2018-03-11T02:47:13.632Z,118.00
2018-03-11T02:49:42.891Z,119.53
2018-03-11T02:52:12.231Z,119.07
2018-03-11T02:54:41.611Z,119.35
2018-03-11T02:57:11.034Z,118.97
2018-03-11T02:59:40.350Z,119.13
2018-03-11T03:02:09.766Z,117.57
2018-03-11T03:04:39.034Z,118.03
2018-03-11T03:07:08.450Z,117.50
2018-03-11T03:09:38.030Z,118.03
2018-03-11T03:12:07.783Z,118.68
2018-03-11T03:14:37.181Z,117.93
2018-03-11T03:17:09.862Z,118.78
2018-03-11T03:19:39.258Z,116.88
2018-03-11T03:22:09.778Z,119.53
2018-03-11T03:24:39.974Z,119.00
2018-03-11T03:27:09.415Z,120.15
2018-03-11T03:29:39.020Z,120.35
2018-03-11T03:34:45.636Z,117.47
2018-03-11T03:37:15.113Z,118.45
2018-03-11T03:39:44.336Z,117.78
2018-03-11T03:42:13.483Z,118.25
2018-03-11T03:44:43.080Z,119.03
2018-03-11T03:47:12.549Z,117.22
2018-03-11T03:49:42.085Z,117.62
2018-03-11T03:52:11.486Z,117.32
2018-03-11T03:54:41.134Z,118.97
2018-03-11T03:57:10.494Z,118.13
2018-03-11T03:59:39.924Z,118.18
2018-03-11T04:02:09.402Z,120.70
2018-03-11T04:04:38.693Z,121.37
2018-03-11T04:07:08.126Z,119.25
2018-03-11T04:09:37.297Z,118.80
2018-03-11T04:12:06.710Z,118.55
2018-03-11T04:14:36.000Z,117.97
2018-03-11T04:17:06.261Z,118.15
2018-03-11T04:19:35.825Z,117.62
2018-03-11T04:22:05.263Z,117.18
2018-03-11T04:24:34.737Z,117.87
2018-03-11T04:27:04.339Z,117.43
2018-03-11T04:29:33.739Z,119.93
2018-03-11T04:32:03.275Z,118.55
2018-03-11T04:34:32.733Z,118.32
2018-03-11T04:37:02.263Z,118.72
2018-03-11T04:39:31.588Z,118.32
2018-03-11T04:42:00.951Z,119.07
2018-03-11T04:44:30.396Z,117.97
2018-03-11T04:46:59.795Z,118.72
2018-03-11T04:49:29.086Z,118.40
2018-03-11T04:51:58.443Z,117.93
2018-03-11T04:54:27.754Z,117.60
2018-03-11T04:56:57.402Z,118.18
2018-03-11T04:59:26.687Z,117.20
2018-03-11T05:01:56.117Z,118.62
2018-03-11T05:04:25.464Z,119.18
2018-03-11T05:06:55.010Z,118.60
2018-03-11T05:09:24.352Z,117.75
2018-03-11T05:11:53.519Z,116.35
2018-03-11T05:14:22.740Z,115.47
2018-03-11T05:16:52.162Z,117.85
2018-03-11T05:19:21.565Z,116.72
2018-03-11T05:21:51.071Z,119.47
2018-03-11T05:24:20.511Z,122.30
2018-03-11T05:26:55.150Z,123.82
2018-03-11T05:29:24.647Z,118.10
2018-03-11T05:31:54.100Z,117.87
2018-03-11T05:34:23.400Z,117.35
2018-03-11T05:36:52.805Z,119.03
2018-03-11T05:39:22.102Z,118.55
2018-03-11T05:41:51.322Z,118.05
2018-03-11T05:44:20.803Z,115.55
2018-03-11T05:46:50.100Z,115.90
2018-03-11T05:49:19.436Z,117.40
2018-03-11T05:52:15.422Z,118.37
2018-03-11T05:54:44.830Z,119.68
2018-03-11T05:57:14.384Z,116.15
2018-03-11T05:59:43.682Z,118.50
2018-03-11T06:02:12.870Z,118.23
2018-03-11T06:04:42.119Z,118.10
2018-03-11T06:07:11.526Z,119.80
2018-03-11T06:09:40.931Z,122.27
2018-03-11T06:12:10.240Z,119.27
2018-03-11T06:14:39.453Z,119.97
2018-03-11T06:17:08.671Z,121.22
2018-03-11T06:19:38.026Z,122.10
2018-03-11T06:22:07.146Z,121.23
2018-03-11T06:24:36.468Z,121.90
2018-03-11T06:27:05.718Z,122.30
2018-03-11T06:29:34.912Z,123.47
2018-03-11T06:32:04.314Z,127.10
2018-03-11T06:34:33.648Z,127.77
2018-03-11T06:37:03.071Z,129.70
2018-03-11T06:39:32.419Z,128.83
2018-03-11T06:42:01.711Z,130.43
2018-03-11T06:44:31.014Z,130.63
2018-03-11T06:47:00.281Z,131.90
2018-03-11T06:49:29.508Z,128.47
2018-03-11T06:51:58.956Z,126.40
2018-03-11T06:54:28.166Z,125.83
2018-03-11T06:56:57.301Z,126.07
2018-03-11T06:59:27.077Z,124.67
2018-03-11T07:01:56.208Z,125.13
2018-03-11T07:04:25.342Z,124.93
2018-03-11T07:06:54.705Z,125.17
2018-03-11T07:09:23.850Z,125.03
2018-03-11T07:11:53.050Z,126.93
2018-03-11T07:14:22.269Z,126.93
2018-03-11T07:16:51.652Z,128.83
2018-03-11T07:19:20.875Z,124.07
2018-03-11T07:21:50.092Z,127.57
2018-03-11T07:24:19.272Z,129.63
2018-03-11T07:26:48.475Z,130.73
2018-03-11T07:29:17.638Z,128.17
2018-03-11T07:31:46.761Z,128.70
2018-03-11T07:34:15.907Z,129.23
2018-03-11T07:36:45.039Z,136.47
2018-03-11T07:39:14.377Z,143.37
2018-03-11T07:41:43.665Z,137.00
2018-03-11T07:44:12.833Z,138.53
2018-03-11T07:46:42.260Z,143.13
2018-03-11T07:49:11.486Z,129.57
2018-03-11T07:51:40.862Z,131.00
2018-03-11T07:54:10.094Z,124.63
2018-03-11T07:56:39.356Z,126.93
2018-03-11T07:59:08.617Z,127.13
2018-03-11T08:01:37.956Z,129.40
2018-03-11T08:04:07.168Z,129.57
2018-03-11T08:06:36.307Z,142.20
2018-03-11T08:09:05.489Z,133.50
2018-03-11T08:11:34.601Z,136.00
2018-03-11T08:14:03.814Z,140.53
2018-03-11T08:16:32.958Z,131.70
2018-03-11T08:19:02.117Z,126.83
2018-03-11T08:21:31.258Z,129.10
2018-03-11T08:24:00.460Z,133.27
2018-03-11T08:26:29.680Z,133.97
2018-03-11T08:28:58.802Z,141.63
2018-03-11T08:31:27.934Z,147.67
2018-03-11T08:33:57.042Z,146.13
2018-03-11T08:36:26.197Z,146.60
2018-03-11T08:38:55.323Z,138.10
2018-03-11T08:41:24.419Z,129.47
2018-03-11T08:43:53.518Z,130.60
2018-03-11T08:46:22.642Z,133.23
2018-03-11T08:48:51.840Z,137.20
2018-03-11T08:51:20.969Z,143.90
2018-03-11T08:53:50.125Z,148.23
2018-03-11T08:56:19.243Z,140.93
2018-03-11T08:58:48.374Z,141.93
2018-03-11T09:01:17.502Z,143.83
2018-03-11T09:03:46.818Z,144.20
2018-03-11T09:06:15.938Z,142.90
2018-03-11T09:08:45.029Z,146.10
2018-03-11T09:11:14.144Z,145.97
2018-03-11T09:13:43.299Z,143.23
2018-03-11T09:16:12.387Z,146.40
2018-03-11T09:18:41.527Z,145.83
2018-03-11T09:21:10.631Z,148.17
2018-03-11T09:23:39.735Z,150.07
2018-03-11T09:26:08.911Z,147.43
2018-03-11T09:28:38.043Z,143.50
2018-03-11T09:31:07.149Z,141.40
2018-03-11T09:33:43.180Z,144.27
2018-03-11T09:36:12.322Z,139.07
2018-03-11T09:38:41.424Z,140.10
2018-03-11T09:41:10.554Z,132.80
2018-03-11T09:43:39.673Z,132.53
2018-03-11T09:46:08.853Z,130.43
2018-03-11T09:48:38.010Z,130.83
2018-03-11T09:51:07.126Z,130.63
2018-03-11T09:53:36.230Z,128.67
2018-03-11T09:56:05.368Z,129.40
2018-03-11T09:58:34.572Z,127.70
2018-03-11T10:01:03.718Z,127.53
2018-03-11T10:03:32.899Z,130.17
2018-03-11T10:06:02.399Z,129.37
2018-03-11T10:08:31.674Z,128.40
2018-03-11T10:11:01.204Z,129.17
2018-03-11T10:13:30.570Z,131.40
2018-03-11T10:15:59.845Z,132.03
2018-03-11T10:18:29.144Z,129.30
2018-03-11T10:20:58.340Z,129.40
2018-03-11T10:23:27.690Z,127.77
2018-03-11T10:25:57.105Z,127.40
2018-03-11T10:28:26.443Z,127.47
2018-03-11T10:30:55.905Z,128.77
2018-03-11T10:33:25.307Z,129.57
2018-03-11T10:35:54.560Z,135.63
2018-03-11T10:38:23.960Z,141.20
2018-03-11T10:40:53.509Z,131.70
2018-03-11T10:43:22.800Z,130.73
2018-03-11T10:45:51.961Z,130.23
2018-03-11T10:48:21.311Z,129.40
2018-03-11T10:50:50.665Z,131.43
2018-03-11T10:53:20.030Z,127.70
2018-03-11T10:55:49.381Z,130.50
2018-03-11T10:58:18.599Z,129.17
2018-03-11T11:00:52.797Z,132.47
2018-03-11T11:03:27.709Z,130.37
2018-03-11T11:05:56.986Z,132.47
2018-03-11T11:08:26.244Z,127.63
2018-03-11T11:10:55.652Z,130.50
2018-03-11T11:13:25.256Z,130.67
2018-03-11T11:15:54.446Z,132.97
2018-03-11T11:18:23.716Z,130.47
2018-03-11T11:20:53.010Z,129.40
2018-03-11T11:23:22.349Z,132.67
2018-03-11T11:25:51.763Z,135.40
2018-03-11T11:28:21.272Z,143.00
2018-03-11T11:30:50.554Z,143.87
2018-03-11T11:33:19.658Z,129.03
2018-03-11T11:35:48.985Z,135.87
2018-03-11T11:38:18.106Z,132.50
2018-03-11T11:40:47.303Z,134.63
2018-03-11T11:43:16.507Z,134.63
2018-03-11T11:45:45.679Z,136.20
2018-03-11T11:48:14.811Z,134.77
2018-03-11T11:50:43.961Z,133.90
2018-03-11T11:53:13.132Z,136.80
2018-03-11T11:55:42.405Z,135.50
2018-03-11T11:58:11.702Z,130.63
2018-03-11T12:00:40.856Z,132.27
2018-03-11T12:03:10.160Z,132.57
2018-03-11T12:05:39.345Z,136.37
2018-03-11T12:08:08.528Z,133.57
2018-03-11T12:10:38.107Z,132.17
2018-03-11T12:13:07.411Z,128.80
2018-03-11T12:15:36.673Z,132.23
2018-03-11T12:18:05.947Z,128.83
2018-03-11T12:20:35.288Z,130.00
2018-03-11T12:23:04.710Z,129.10
2018-03-11T12:25:33.994Z,131.37
2018-03-11T12:28:03.189Z,131.40
2018-03-11T12:30:32.593Z,130.30
2018-03-11T12:33:01.818Z,133.17
2018-03-11T12:35:30.936Z,130.30
2018-03-11T12:38:00.078Z,128.47
2018-03-11T12:40:29.205Z,129.83
2018-03-11T12:42:58.373Z,131.63
2018-03-11T12:45:27.672Z,129.87
2018-03-11T12:47:56.916Z,130.77
2018-03-11T12:50:26.045Z,130.30
2018-03-11T12:52:55.631Z,131.43
2018-03-11T12:55:24.984Z,131.83
2018-03-11T12:57:54.266Z,133.80
2018-03-11T13:00:23.701Z,130.60
2018-03-11T13:02:52.826Z,129.60
2018-03-11T13:05:21.936Z,129.10
2018-03-11T13:07:51.160Z,130.93
2018-03-11T13:10:20.393Z,129.27
2018-03-11T13:12:49.618Z,130.83
2018-03-11T13:15:18.779Z,128.37
2018-03-11T13:17:48.013Z,128.23
2018-03-11T13:20:23.207Z,127.83
2018-03-11T13:22:52.334Z,128.70
2018-03-11T13:25:21.687Z,127.73
2018-03-11T13:27:56.939Z,129.60
2018-03-11T13:30:26.209Z,127.37
2018-03-11T13:33:01.554Z,129.50
2018-03-11T13:38:12.440Z,126.13
2018-03-11T13:40:44.649Z,128.23
2018-03-11T13:43:13.904Z,126.40
2018-03-11T13:45:49.163Z,126.83
2018-03-11T13:48:18.716Z,129.77
2018-03-11T13:50:48.060Z,130.17
2018-03-11T13:53:23.496Z,130.43
2018-03-11T13:55:52.742Z,129.97
2018-03-11T13:58:27.809Z,127.53
2018-03-11T14:00:57.297Z,126.60
2018-03-11T14:03:26.748Z,127.87
2018-03-11T14:05:55.970Z,129.83
2018-03-11T14:08:25.244Z,125.67
2018-03-11T14:10:54.457Z,132.20
2018-03-11T14:13:23.897Z,127.43
2018-03-11T14:15:53.233Z,127.77
2018-03-11T14:18:22.430Z,128.77
2018-03-11T14:20:51.686Z,125.70
2018-03-11T14:23:20.931Z,124.83
2018-03-11T14:25:50.141Z,127.77
2018-03-11T14:28:19.423Z,125.80
2018-03-11T14:30:48.594Z,127.23
2018-03-11T14:33:17.832Z,127.30
2018-03-11T14:35:47.133Z,127.93
2018-03-11T14:38:16.311Z,125.40
2018-03-11T14:40:45.469Z,127.80
2018-03-11T14:43:14.731Z,127.37
2018-03-11T14:45:44.012Z,127.57
2018-03-11T14:48:13.733Z,129.70
2018-03-11T14:50:43.025Z,129.40
2018-03-11T14:53:12.226Z,127.27
2018-03-11T14:55:41.486Z,127.60
2018-03-11T14:58:10.731Z,128.37
2018-03-11T15:00:39.917Z,128.47
2018-03-11T15:03:09.134Z,127.10
2018-03-11T15:05:38.380Z,125.23
2018-03-11T15:08:07.810Z,128.00
2018-03-11T15:10:37.254Z,127.27
2018-03-11T15:13:06.656Z,128.20
2018-03-11T15:15:35.912Z,126.70
2018-03-11T15:18:05.106Z,127.60
2018-03-11T15:20:34.304Z,128.50
2018-03-11T15:23:03.452Z,130.83
2018-03-11T15:25:32.803Z,128.23
2018-03-11T15:28:02.464Z,127.73
2018-03-11T15:30:31.686Z,129.03
2018-03-11T15:33:01.168Z,127.97
2018-03-11T15:35:30.628Z,129.77
2018-03-11T15:38:00.083Z,127.87
2018-03-11T15:40:29.253Z,127.27
2018-03-11T15:42:58.411Z,125.17
2018-03-11T15:45:27.535Z,129.03
2018-03-11T15:47:56.981Z,130.63
2018-03-11T15:50:26.152Z,126.47
2018-03-11T15:52:55.485Z,124.67
2018-03-11T15:55:24.680Z,127.23
2018-03-11T15:57:54.033Z,127.53
2018-03-11T16:00:23.154Z,125.93
2018-03-11T16:02:52.378Z,127.37
2018-03-11T16:05:21.575Z,124.93
2018-03-11T16:07:50.973Z,126.90
2018-03-11T16:10:20.283Z,125.20
2018-03-11T16:12:49.778Z,130.63
2018-03-11T16:15:19.897Z,162.05
2018-03-11T16:17:50.550Z,123.50
2018-03-11T16:20:19.983Z,125.50
2018-03-11T16:22:49.164Z,125.03
2018-03-11T16:25:18.640Z,125.70
2018-03-11T16:27:47.863Z,125.60
2018-03-11T16:30:17.001Z,127.13
2018-03-11T16:32:46.158Z,147.40
2018-03-11T16:35:15.351Z,125.80
2018-03-11T16:37:44.539Z,126.80
2018-03-11T16:40:13.714Z,124.33
2018-03-11T16:42:42.883Z,123.30
2018-03-11T16:45:12.087Z,124.63
2018-03-11T16:47:41.225Z,125.20
2018-03-11T16:50:10.371Z,126.87
2018-03-11T16:52:39.504Z,124.00
2018-03-11T16:55:08.662Z,125.90
2018-03-11T16:57:37.850Z,127.83
2018-03-11T17:00:07.019Z,125.80
2018-03-11T17:02:36.144Z,126.73
2018-03-11T17:05:05.323Z,156.18
2018-03-11T17:07:34.581Z,122.77
2018-03-11T17:10:03.706Z,126.17
2018-03-11T17:12:32.851Z,127.83
2018-03-11T17:15:02.019Z,128.80
2018-03-11T17:17:31.150Z,126.57
2018-03-11T17:20:00.405Z,126.00
2018-03-11T17:22:29.554Z,126.10
2018-03-11T17:24:58.700Z,128.77
2018-03-11T17:27:27.852Z,128.10
2018-03-11T17:29:56.990Z,126.57
2018-03-11T17:32:26.142Z,127.37
2018-03-11T17:34:55.293Z,127.97
2018-03-11T17:37:24.425Z,125.13
2018-03-11T17:39:53.574Z,127.57
2018-03-11T17:42:22.734Z,127.87
2018-03-11T17:44:51.920Z,129.43
2018-03-11T17:47:21.906Z,128.03
2018-03-11T17:49:51.097Z,129.17
2018-03-11T17:52:20.202Z,129.93
2018-03-11T17:54:49.348Z,130.10
2018-03-11T17:57:18.495Z,128.30
2018-03-11T17:59:47.643Z,131.67
2018-03-11T18:02:16.800Z,131.53
2018-03-11T18:04:45.990Z,129.83
2018-03-11T18:07:15.105Z,129.37
2018-03-11T18:09:44.246Z,130.33
2018-03-11T18:12:13.396Z,126.77
2018-03-11T18:14:42.539Z,129.87
2018-03-11T18:17:11.689Z,127.37
2018-03-11T18:19:40.810Z,130.73
2018-03-11T18:22:09.930Z,127.13
2018-03-11T18:24:39.033Z,129.40
2018-03-11T18:27:08.192Z,129.73
2018-03-11T18:29:37.294Z,127.13
2018-03-11T18:32:06.464Z,127.40
2018-03-11T18:34:35.586Z,127.47
2018-03-11T18:37:04.686Z,127.90
2018-03-11T18:39:33.834Z,131.27
2018-03-11T18:42:03.008Z,129.30
2018-03-11T18:44:32.191Z,127.67
2018-03-11T18:47:01.314Z,128.33
2018-03-11T18:49:30.421Z,128.43
2018-03-11T18:51:59.658Z,129.17
2018-03-11T18:54:28.807Z,127.53
2018-03-11T18:56:57.957Z,129.30
2018-03-11T18:59:27.053Z,127.27
2018-03-11T19:01:56.186Z,129.43
2018-03-11T19:04:25.321Z,129.60
2018-03-11T19:06:54.544Z,131.77
2018-03-11T19:09:23.659Z,126.77
2018-03-11T19:11:52.753Z,130.63
2018-03-11T19:14:21.882Z,131.37
2018-03-11T19:16:51.006Z,129.47
2018-03-11T19:19:20.170Z,129.30
2018-03-11T19:21:49.317Z,131.03
2018-03-11T19:24:18.448Z,127.53
2018-03-11T19:26:47.546Z,131.43
2018-03-11T19:29:17.520Z,129.70
2018-03-11T19:31:46.657Z,129.90
2018-03-11T19:34:15.871Z,128.10
2018-03-11T19:36:45.130Z,130.03
2018-03-11T19:39:14.259Z,128.23
2018-03-11T19:41:43.403Z,128.80
2018-03-11T19:44:12.530Z,128.60
2018-03-11T19:46:41.642Z,130.30
2018-03-11T19:49:10.914Z,128.37
2018-03-11T19:51:40.011Z,129.03
2018-03-11T19:54:09.105Z,129.93
2018-03-11T19:56:38.234Z,127.37
2018-03-11T19:59:07.350Z,127.50
2018-03-11T20:01:36.549Z,128.23
2018-03-11T20:04:05.682Z,126.73
2018-03-11T20:06:34.816Z,125.00
2018-03-11T20:09:04.041Z,128.97
2018-03-11T20:11:33.281Z,128.30
2018-03-11T20:14:02.584Z,128.63
2018-03-11T20:16:31.775Z,129.30
2018-03-11T20:19:00.959Z,127.20
2018-03-11T20:21:30.224Z,129.37
2018-03-11T20:23:59.600Z,129.53
2018-03-11T20:26:28.886Z,129.30
2018-03-11T20:28:58.117Z,126.73
2018-03-11T20:31:27.878Z,127.10
2018-03-11T20:33:57.130Z,129.73
2018-03-11T20:36:26.319Z,127.93
2018-03-11T20:38:55.512Z,128.97
2018-03-11T20:41:24.742Z,128.27
2018-03-11T20:43:53.889Z,128.60
2018-03-11T20:46:23.140Z,129.40
2018-03-11T20:48:52.294Z,129.63
2018-03-11T20:51:21.557Z,128.57
2018-03-11T20:53:50.778Z,130.13
2018-03-11T20:56:20.054Z,128.73
2018-03-11T20:58:49.688Z,130.73
2018-03-11T21:01:18.926Z,131.27
2018-03-11T21:03:48.738Z,126.53
2018-03-11T21:06:17.906Z,127.77
2018-03-11T21:08:47.200Z,127.63
2018-03-11T21:11:16.506Z,128.63
2018-03-11T21:13:45.846Z,128.73
2018-03-11T21:16:15.064Z,127.93
2018-03-11T21:18:44.227Z,128.93
2018-03-11T21:21:13.994Z,128.53
2018-03-11T21:23:43.130Z,129.53
2018-03-11T21:26:12.441Z,128.23
2018-03-11T21:28:41.770Z,130.13
2018-03-11T21:31:11.284Z,131.37
2018-03-11T21:33:40.497Z,132.00
2018-03-11T21:36:09.865Z,128.93
2018-03-11T21:38:39.708Z,129.80
2018-03-11T21:41:09.334Z,129.50
2018-03-11T21:43:38.628Z,128.13
2018-03-11T21:46:07.826Z,129.67
2018-03-11T21:48:37.210Z,128.90
2018-03-11T21:51:06.526Z,130.57
2018-03-11T21:53:37.126Z,127.50
2018-03-11T21:56:06.329Z,129.60
2018-03-11T21:58:35.834Z,133.37
2018-03-11T22:01:05.137Z,129.93
2018-03-11T22:03:34.367Z,128.80
2018-03-11T22:06:03.825Z,131.20
2018-03-11T22:08:33.256Z,130.63
2018-03-11T22:11:02.478Z,129.83
2018-03-11T22:13:31.869Z,129.83
2018-03-11T22:16:01.400Z,130.37
2018-03-11T22:18:30.613Z,128.77
2018-03-11T22:21:00.211Z,127.17
2018-03-11T22:23:29.706Z,129.07
2018-03-11T22:25:59.154Z,130.00
2018-03-11T22:28:28.573Z,129.03
2018-03-11T22:30:57.809Z,129.17
2018-03-11T22:36:02.438Z,129.30
2018-03-11T22:38:31.579Z,128.07
2018-03-11T22:41:00.725Z,127.13
2018-03-11T22:43:29.873Z,127.70
2018-03-11T22:45:59.145Z,127.33
2018-03-11T22:48:28.286Z,129.03
2018-03-11T22:50:57.446Z,129.53
2018-03-11T22:53:26.588Z,127.47
2018-03-11T22:55:55.690Z,129.03
2018-03-11T22:58:24.833Z,126.23
2018-03-11T23:00:53.969Z,127.30
2018-03-11T23:03:23.263Z,128.33
2018-03-11T23:05:52.421Z,129.33
2018-03-11T23:08:21.721Z,128.53
2018-03-11T23:10:50.898Z,131.43
2018-03-11T23:13:20.183Z,131.73
2018-03-11T23:15:49.399Z,130.63
2018-03-11T23:18:18.569Z,130.50
2018-03-11T23:20:47.686Z,129.00
2018-03-11T23:23:16.817Z,128.10
2018-03-11T23:25:46.160Z,128.30
2018-03-11T23:28:15.322Z,129.73
2018-03-11T23:30:44.506Z,126.37
2018-03-11T23:33:13.658Z,130.00
2018-03-11T23:35:42.916Z,128.97
2018-03-11T23:38:12.107Z,132.00
2018-03-11T23:40:41.309Z,130.80
2018-03-11T23:43:10.575Z,128.93
2018-03-11T23:45:39.806Z,129.87
2018-03-11T23:48:09.001Z,128.43
2018-03-11T23:50:38.382Z,129.17
2018-03-11T23:53:07.497Z,128.03
2018-03-11T23:55:36.728Z,128.13
2018-03-11T23:58:06.015Z,129.33
